sensor_id;sensor_type;location;lat;lon;timestamp;P1;durP1;ratioP1;P2;durP2;ratioP2
34060;SDS011;20336;-33.424;-70.638;2023-05-19T00:00:17;15.25;;;8.73;;
34060;SDS011;20336;-33.424;-70.638;2023-05-19T00:02:44;19.67;;;10.48;;
34060;SDS011;20336;-33.424;-70.638;2023-05-19T00:05:11;20.85;;;10.65;;
34060;SDS011;20336;-33.424;-70.638;2023-05-19T00:07:42;24.10;;;10.73;;
34060;SDS011;20336;-33.424;-70.638;2023-05-19T00:10:10;17.65;;;9.13;;
34060;SDS011;20336;-33.424;-70.638;2023-05-19T00:12:37;18.58;;;8.07;;
34060;SDS011;20336;-33.424;-70.638;2023-05-19T00:15:04;14.43;;;7.93;;
34060;SDS011;20336;-33.424;-70.638;2023-05-19T00:17:31;18.33;;;7.88;;
34060;SDS011;20336;-33.424;-70.638;2023-05-19T00:19:58;18.52;;;10.00;;
34060;SDS011;20336;-33.424;-70.638;2023-05-19T00:22:25;17.75;;;8.27;;
34060;SDS011;20336;-33.424;-70.638;2023-05-19T00:24:52;14.02;;;8.13;;
34060;SDS011;20336;-33.424;-70.638;2023-05-19T00:27:19;13.90;;;8.55;;
34060;SDS011;20336;-33.424;-70.638;2023-05-19T00:29:46;15.65;;;8.43;;
34060;SDS011;20336;-33.424;-70.638;2023-05-19T00:32:13;16.80;;;9.02;;
34060;SDS011;20336;-33.424;-70.638;2023-05-19T00:34:40;19.92;;;9.48;;
34060;SDS011;20336;-33.424;-70.638;2023-05-19T00:37:07;17.40;;;8.60;;
34060;SDS011;20336;-33.424;-70.638;2023-05-19T00:39:34;18.58;;;8.40;;
34060;SDS011;20336;-33.424;-70.638;2023-05-19T00:42:01;14.40;;;8.57;;
34060;SDS011;20336;-33.424;-70.638;2023-05-19T00:44:28;17.45;;;8.15;;
34060;SDS011;20336;-33.424;-70.638;2023-05-19T00:46:55;17.13;;;8.82;;
34060;SDS011;20336;-33.424;-70.638;2023-05-19T00:49:22;14.50;;;7.85;;
34060;SDS011;20336;-33.424;-70.638;2023-05-19T00:51:49;16.42;;;8.35;;
34060;SDS011;20336;-33.424;-70.638;2023-05-19T00:54:16;14.30;;;8.10;;
34060;SDS011;20336;-33.424;-70.638;2023-05-19T00:56:43;14.60;;;7.57;;
34060;SDS011;20336;-33.424;-70.638;2023-05-19T00:59:10;16.45;;;8.25;;
34060;SDS011;20336;-33.424;-70.638;2023-05-19T01:01:37;14.30;;;7.72;;
34060;SDS011;20336;-33.424;-70.638;2023-05-19T01:04:04;12.60;;;8.50;;
34060;SDS011;20336;-33.424;-70.638;2023-05-19T01:06:35;14.32;;;7.88;;
34060;SDS011;20336;-33.424;-70.638;2023-05-19T01:09:05;14.20;;;7.45;;
34060;SDS011;20336;-33.424;-70.638;2023-05-19T01:11:32;11.95;;;8.27;;
34060;SDS011;20336;-33.424;-70.638;2023-05-19T01:13:58;13.82;;;7.63;;
34060;SDS011;20336;-33.424;-70.638;2023-05-19T01:19:23;14.45;;;8.27;;
34060;SDS011;20336;-33.424;-70.638;2023-05-19T01:32:33;17.40;;;9.70;;
34060;SDS011;20336;-33.424;-70.638;2023-05-19T01:35:00;20.30;;;10.80;;
34060;SDS011;20336;-33.424;-70.638;2023-05-19T01:37:28;19.70;;;10.75;;
34060;SDS011;20336;-33.424;-70.638;2023-05-19T01:39:55;20.52;;;10.75;;
34060;SDS011;20336;-33.424;-70.638;2023-05-19T01:42:22;20.33;;;11.65;;
34060;SDS011;20336;-33.424;-70.638;2023-05-19T01:44:50;19.60;;;11.65;;
34060;SDS011;20336;-33.424;-70.638;2023-05-19T01:47:17;17.52;;;10.38;;
34060;SDS011;20336;-33.424;-70.638;2023-05-19T01:49:44;19.45;;;10.63;;
34060;SDS011;20336;-33.424;-70.638;2023-05-19T01:52:11;20.17;;;10.70;;
34060;SDS011;20336;-33.424;-70.638;2023-05-19T01:54:38;20.42;;;10.90;;
34060;SDS011;20336;-33.424;-70.638;2023-05-19T01:59:58;17.30;;;10.07;;
34060;SDS011;20336;-33.424;-70.638;2023-05-19T02:05:14;24.38;;;10.05;;
34060;SDS011;20336;-33.424;-70.638;2023-05-19T02:07:47;15.57;;;9.38;;
34060;SDS011;20336;-33.424;-70.638;2023-05-19T02:10:18;20.20;;;10.02;;
34060;SDS011;20336;-33.424;-70.638;2023-05-19T02:12:48;19.45;;;9.80;;
34060;SDS011;20336;-33.424;-70.638;2023-05-19T02:15:21;19.10;;;8.88;;
34060;SDS011;20336;-33.424;-70.638;2023-05-19T02:17:51;17.98;;;8.90;;
34060;SDS011;20336;-33.424;-70.638;2023-05-19T02:20:19;23.23;;;9.63;;
34060;SDS011;20336;-33.424;-70.638;2023-05-19T02:22:48;20.15;;;9.20;;
34060;SDS011;20336;-33.424;-70.638;2023-05-19T02:25:15;27.17;;;10.80;;
34060;SDS011;20336;-33.424;-70.638;2023-05-19T02:27:42;22.77;;;10.82;;
34060;SDS011;20336;-33.424;-70.638;2023-05-19T02:30:10;17.90;;;9.30;;
34060;SDS011;20336;-33.424;-70.638;2023-05-19T02:32:37;22.88;;;9.20;;
34060;SDS011;20336;-33.424;-70.638;2023-05-19T02:35:04;19.88;;;9.85;;
34060;SDS011;20336;-33.424;-70.638;2023-05-19T02:37:31;18.58;;;9.63;;
34060;SDS011;20336;-33.424;-70.638;2023-05-19T02:39:58;18.77;;;9.07;;
34060;SDS011;20336;-33.424;-70.638;2023-05-19T02:42:25;13.70;;;7.65;;
34060;SDS011;20336;-33.424;-70.638;2023-05-19T02:44:52;18.15;;;8.55;;
34060;SDS011;20336;-33.424;-70.638;2023-05-19T02:47:19;16.80;;;8.98;;
34060;SDS011;20336;-33.424;-70.638;2023-05-19T02:49:46;17.85;;;9.40;;
34060;SDS011;20336;-33.424;-70.638;2023-05-19T02:52:17;20.20;;;9.88;;
34060;SDS011;20336;-33.424;-70.638;2023-05-19T02:54:43;16.88;;;9.88;;
34060;SDS011;20336;-33.424;-70.638;2023-05-19T02:57:10;16.80;;;9.95;;
34060;SDS011;20336;-33.424;-70.638;2023-05-19T02:59:37;18.13;;;9.32;;
34060;SDS011;20336;-33.424;-70.638;2023-05-19T03:02:05;17.58;;;10.15;;
34060;SDS011;20336;-33.424;-70.638;2023-05-19T03:04:32;17.95;;;9.43;;
34060;SDS011;20336;-33.424;-70.638;2023-05-19T03:07:06;15.18;;;8.75;;
34060;SDS011;20336;-33.424;-70.638;2023-05-19T03:09:35;16.95;;;9.07;;
34060;SDS011;20336;-33.424;-70.638;2023-05-19T03:12:02;13.63;;;9.30;;
34060;SDS011;20336;-33.424;-70.638;2023-05-19T03:14:31;18.08;;;9.45;;
34060;SDS011;20336;-33.424;-70.638;2023-05-19T03:16:58;15.82;;;9.45;;
34060;SDS011;20336;-33.424;-70.638;2023-05-19T03:19:26;16.40;;;9.15;;
34060;SDS011;20336;-33.424;-70.638;2023-05-19T03:21:52;15.95;;;10.00;;
34060;SDS011;20336;-33.424;-70.638;2023-05-19T03:24:20;20.52;;;10.80;;
34060;SDS011;20336;-33.424;-70.638;2023-05-19T03:26:47;15.48;;;9.77;;
34060;SDS011;20336;-33.424;-70.638;2023-05-19T03:29:15;18.60;;;10.68;;
34060;SDS011;20336;-33.424;-70.638;2023-05-19T03:31:41;16.02;;;9.88;;
34060;SDS011;20336;-33.424;-70.638;2023-05-19T03:34:08;15.43;;;9.40;;
34060;SDS011;20336;-33.424;-70.638;2023-05-19T03:36:35;18.27;;;9.85;;
34060;SDS011;20336;-33.424;-70.638;2023-05-19T03:39:05;19.77;;;10.32;;
34060;SDS011;20336;-33.424;-70.638;2023-05-19T03:41:32;18.63;;;9.43;;
34060;SDS011;20336;-33.424;-70.638;2023-05-19T03:43:59;16.05;;;8.85;;
34060;SDS011;20336;-33.424;-70.638;2023-05-19T03:46:26;16.13;;;9.80;;
34060;SDS011;20336;-33.424;-70.638;2023-05-19T03:48:53;17.40;;;10.05;;
34060;SDS011;20336;-33.424;-70.638;2023-05-19T03:51:20;16.58;;;8.95;;
34060;SDS011;20336;-33.424;-70.638;2023-05-19T03:53:54;15.30;;;9.35;;
34060;SDS011;20336;-33.424;-70.638;2023-05-19T03:56:21;16.45;;;9.43;;
34060;SDS011;20336;-33.424;-70.638;2023-05-19T03:58:50;15.40;;;9.33;;
34060;SDS011;20336;-33.424;-70.638;2023-05-19T04:01:19;16.38;;;8.90;;
34060;SDS011;20336;-33.424;-70.638;2023-05-19T04:03:45;20.57;;;9.83;;
34060;SDS011;20336;-33.424;-70.638;2023-05-19T04:06:12;14.87;;;9.80;;
34060;SDS011;20336;-33.424;-70.638;2023-05-19T04:08:39;15.63;;;9.50;;
34060;SDS011;20336;-33.424;-70.638;2023-05-19T04:11:08;18.67;;;10.50;;
34060;SDS011;20336;-33.424;-70.638;2023-05-19T04:13:35;17.70;;;9.83;;
34060;SDS011;20336;-33.424;-70.638;2023-05-19T04:16:02;15.83;;;9.87;;
34060;SDS011;20336;-33.424;-70.638;2023-05-19T04:18:29;17.33;;;9.50;;
34060;SDS011;20336;-33.424;-70.638;2023-05-19T04:20:56;16.23;;;9.70;;
34060;SDS011;20336;-33.424;-70.638;2023-05-19T04:23:23;15.30;;;9.73;;
34060;SDS011;20336;-33.424;-70.638;2023-05-19T04:25:50;15.20;;;9.73;;
34060;SDS011;20336;-33.424;-70.638;2023-05-19T04:28:18;16.90;;;10.53;;
34060;SDS011;20336;-33.424;-70.638;2023-05-19T04:30:49;13.53;;;9.00;;
34060;SDS011;20336;-33.424;-70.638;2023-05-19T04:33:16;13.77;;;9.57;;
34060;SDS011;20336;-33.424;-70.638;2023-05-19T04:35:44;17.40;;;9.53;;
34060;SDS011;20336;-33.424;-70.638;2023-05-19T04:38:11;14.63;;;9.80;;
34060;SDS011;20336;-33.424;-70.638;2023-05-19T04:40:43;17.47;;;9.63;;
34060;SDS011;20336;-33.424;-70.638;2023-05-19T04:43:10;16.10;;;9.77;;
34060;SDS011;20336;-33.424;-70.638;2023-05-19T04:45:37;21.57;;;12.50;;
34060;SDS011;20336;-33.424;-70.638;2023-05-19T04:48:06;19.83;;;10.07;;
34060;SDS011;20336;-33.424;-70.638;2023-05-19T04:50:33;16.40;;;9.60;;
34060;SDS011;20336;-33.424;-70.638;2023-05-19T04:53:03;17.27;;;9.83;;
34060;SDS011;20336;-33.424;-70.638;2023-05-19T04:55:29;16.03;;;8.30;;
34060;SDS011;20336;-33.424;-70.638;2023-05-19T04:57:57;14.80;;;9.30;;
34060;SDS011;20336;-33.424;-70.638;2023-05-19T05:00:24;41.97;;;16.83;;
34060;SDS011;20336;-33.424;-70.638;2023-05-19T05:02:51;17.03;;;10.53;;
34060;SDS011;20336;-33.424;-70.638;2023-05-19T05:05:17;17.50;;;9.20;;
34060;SDS011;20336;-33.424;-70.638;2023-05-19T05:07:44;17.83;;;10.77;;
34060;SDS011;20336;-33.424;-70.638;2023-05-19T05:10:12;22.83;;;12.13;;
34060;SDS011;20336;-33.424;-70.638;2023-05-19T05:12:39;20.30;;;11.00;;
34060;SDS011;20336;-33.424;-70.638;2023-05-19T05:15:06;15.23;;;9.50;;
34060;SDS011;20336;-33.424;-70.638;2023-05-19T05:17:33;16.90;;;10.43;;
34060;SDS011;20336;-33.424;-70.638;2023-05-19T05:20:00;17.67;;;10.20;;
34060;SDS011;20336;-33.424;-70.638;2023-05-19T05:22:30;15.30;;;8.97;;
34060;SDS011;20336;-33.424;-70.638;2023-05-19T05:24:57;17.13;;;9.80;;
34060;SDS011;20336;-33.424;-70.638;2023-05-19T05:27:24;24.97;;;15.17;;
34060;SDS011;20336;-33.424;-70.638;2023-05-19T05:29:51;18.37;;;11.77;;
34060;SDS011;20336;-33.424;-70.638;2023-05-19T05:32:18;18.50;;;11.47;;
34060;SDS011;20336;-33.424;-70.638;2023-05-19T05:34:45;16.93;;;10.70;;
34060;SDS011;20336;-33.424;-70.638;2023-05-19T05:37:12;19.67;;;12.10;;
34060;SDS011;20336;-33.424;-70.638;2023-05-19T05:39:39;22.03;;;13.07;;
34060;SDS011;20336;-33.424;-70.638;2023-05-19T05:42:06;22.13;;;12.17;;
34060;SDS011;20336;-33.424;-70.638;2023-05-19T05:44:36;17.37;;;11.23;;
34060;SDS011;20336;-33.424;-70.638;2023-05-19T05:47:03;19.53;;;10.43;;
34060;SDS011;20336;-33.424;-70.638;2023-05-19T05:49:30;18.30;;;11.17;;
34060;SDS011;20336;-33.424;-70.638;2023-05-19T05:51:57;18.77;;;11.90;;
34060;SDS011;20336;-33.424;-70.638;2023-05-19T05:54:24;22.13;;;11.63;;
34060;SDS011;20336;-33.424;-70.638;2023-05-19T05:56:51;23.20;;;10.73;;
34060;SDS011;20336;-33.424;-70.638;2023-05-19T05:59:18;17.67;;;11.47;;
34060;SDS011;20336;-33.424;-70.638;2023-05-19T06:01:45;15.50;;;9.23;;
34060;SDS011;20336;-33.424;-70.638;2023-05-19T06:04:12;19.50;;;10.73;;
34060;SDS011;20336;-33.424;-70.638;2023-05-19T06:06:39;15.50;;;9.73;;
34060;SDS011;20336;-33.424;-70.638;2023-05-19T06:09:05;16.93;;;10.57;;
34060;SDS011;20336;-33.424;-70.638;2023-05-19T06:11:32;16.63;;;9.70;;
34060;SDS011;20336;-33.424;-70.638;2023-05-19T06:13:59;14.80;;;9.77;;
34060;SDS011;20336;-33.424;-70.638;2023-05-19T06:16:26;19.90;;;11.67;;
34060;SDS011;20336;-33.424;-70.638;2023-05-19T06:18:53;17.17;;;10.87;;
34060;SDS011;20336;-33.424;-70.638;2023-05-19T06:21:20;20.20;;;10.73;;
34060;SDS011;20336;-33.424;-70.638;2023-05-19T06:23:47;17.97;;;10.73;;
34060;SDS011;20336;-33.424;-70.638;2023-05-19T06:26:14;17.37;;;10.67;;
34060;SDS011;20336;-33.424;-70.638;2023-05-19T06:28:41;18.77;;;11.27;;
34060;SDS011;20336;-33.424;-70.638;2023-05-19T06:31:08;17.03;;;10.33;;
34060;SDS011;20336;-33.424;-70.638;2023-05-19T06:33:35;18.40;;;10.97;;
34060;SDS011;20336;-33.424;-70.638;2023-05-19T06:36:02;32.67;;;19.53;;
34060;SDS011;20336;-33.424;-70.638;2023-05-19T06:38:29;21.80;;;11.70;;
34060;SDS011;20336;-33.424;-70.638;2023-05-19T06:40:55;25.57;;;12.03;;
34060;SDS011;20336;-33.424;-70.638;2023-05-19T06:43:22;39.87;;;22.07;;
34060;SDS011;20336;-33.424;-70.638;2023-05-19T06:45:50;20.27;;;12.57;;
34060;SDS011;20336;-33.424;-70.638;2023-05-19T06:48:16;21.10;;;11.70;;
34060;SDS011;20336;-33.424;-70.638;2023-05-19T06:50:43;25.10;;;14.67;;
34060;SDS011;20336;-33.424;-70.638;2023-05-19T06:53:10;22.47;;;12.93;;
34060;SDS011;20336;-33.424;-70.638;2023-05-19T06:55:37;20.63;;;12.60;;
34060;SDS011;20336;-33.424;-70.638;2023-05-19T06:58:04;20.60;;;12.90;;
34060;SDS011;20336;-33.424;-70.638;2023-05-19T07:00:31;18.73;;;11.20;;
34060;SDS011;20336;-33.424;-70.638;2023-05-19T07:02:58;20.80;;;11.37;;
34060;SDS011;20336;-33.424;-70.638;2023-05-19T07:05:25;22.67;;;11.90;;
34060;SDS011;20336;-33.424;-70.638;2023-05-19T07:07:52;21.73;;;12.00;;
34060;SDS011;20336;-33.424;-70.638;2023-05-19T07:10:18;21.63;;;11.20;;
34060;SDS011;20336;-33.424;-70.638;2023-05-19T07:12:46;17.77;;;10.70;;
34060;SDS011;20336;-33.424;-70.638;2023-05-19T07:15:13;16.60;;;11.03;;
34060;SDS011;20336;-33.424;-70.638;2023-05-19T07:17:40;20.03;;;10.73;;
34060;SDS011;20336;-33.424;-70.638;2023-05-19T07:20:06;17.60;;;11.10;;
34060;SDS011;20336;-33.424;-70.638;2023-05-19T07:22:37;20.63;;;10.50;;
34060;SDS011;20336;-33.424;-70.638;2023-05-19T07:25:05;18.90;;;10.50;;
34060;SDS011;20336;-33.424;-70.638;2023-05-19T07:27:31;20.97;;;10.43;;
34060;SDS011;20336;-33.424;-70.638;2023-05-19T07:29:58;19.30;;;10.27;;
34060;SDS011;20336;-33.424;-70.638;2023-05-19T07:32:25;18.43;;;10.20;;
34060;SDS011;20336;-33.424;-70.638;2023-05-19T07:34:52;17.37;;;10.27;;
34060;SDS011;20336;-33.424;-70.638;2023-05-19T07:37:19;22.30;;;11.60;;
34060;SDS011;20336;-33.424;-70.638;2023-05-19T07:39:46;19.73;;;10.67;;
34060;SDS011;20336;-33.424;-70.638;2023-05-19T07:42:12;20.10;;;9.87;;
34060;SDS011;20336;-33.424;-70.638;2023-05-19T07:44:39;19.57;;;10.87;;
34060;SDS011;20336;-33.424;-70.638;2023-05-19T07:47:06;21.57;;;10.73;;
34060;SDS011;20336;-33.424;-70.638;2023-05-19T07:49:33;20.53;;;11.10;;
34060;SDS011;20336;-33.424;-70.638;2023-05-19T07:52:00;21.97;;;11.50;;
34060;SDS011;20336;-33.424;-70.638;2023-05-19T07:54:27;20.67;;;11.93;;
34060;SDS011;20336;-33.424;-70.638;2023-05-19T07:56:54;19.50;;;10.97;;
34060;SDS011;20336;-33.424;-70.638;2023-05-19T07:59:21;18.63;;;10.53;;
34060;SDS011;20336;-33.424;-70.638;2023-05-19T08:01:48;19.23;;;11.20;;
34060;SDS011;20336;-33.424;-70.638;2023-05-19T08:04:15;17.73;;;10.23;;
34060;SDS011;20336;-33.424;-70.638;2023-05-19T08:06:42;19.23;;;10.37;;
34060;SDS011;20336;-33.424;-70.638;2023-05-19T08:09:09;16.80;;;10.60;;
34060;SDS011;20336;-33.424;-70.638;2023-05-19T08:11:36;17.73;;;10.20;;
34060;SDS011;20336;-33.424;-70.638;2023-05-19T08:14:03;19.80;;;10.27;;
34060;SDS011;20336;-33.424;-70.638;2023-05-19T08:16:30;18.03;;;10.27;;
34060;SDS011;20336;-33.424;-70.638;2023-05-19T08:18:57;15.40;;;9.67;;
34060;SDS011;20336;-33.424;-70.638;2023-05-19T08:21:26;19.20;;;9.77;;
34060;SDS011;20336;-33.424;-70.638;2023-05-19T08:23:53;16.37;;;8.80;;
34060;SDS011;20336;-33.424;-70.638;2023-05-19T08:26:21;16.47;;;9.40;;
34060;SDS011;20336;-33.424;-70.638;2023-05-19T08:28:48;17.80;;;10.00;;
34060;SDS011;20336;-33.424;-70.638;2023-05-19T08:31:15;20.43;;;11.03;;
34060;SDS011;20336;-33.424;-70.638;2023-05-19T08:33:42;22.47;;;11.50;;
34060;SDS011;20336;-33.424;-70.638;2023-05-19T08:36:10;22.53;;;11.17;;
34060;SDS011;20336;-33.424;-70.638;2023-05-19T08:38:37;22.50;;;11.87;;
34060;SDS011;20336;-33.424;-70.638;2023-05-19T08:41:04;20.70;;;12.20;;
34060;SDS011;20336;-33.424;-70.638;2023-05-19T08:43:31;20.53;;;12.70;;
34060;SDS011;20336;-33.424;-70.638;2023-05-19T08:45:58;21.03;;;12.97;;
34060;SDS011;20336;-33.424;-70.638;2023-05-19T08:48:28;21.87;;;13.40;;
34060;SDS011;20336;-33.424;-70.638;2023-05-19T08:51:15;22.10;;;12.80;;
34060;SDS011;20336;-33.424;-70.638;2023-05-19T08:53:46;21.17;;;12.83;;
34060;SDS011;20336;-33.424;-70.638;2023-05-19T08:56:15;27.97;;;13.37;;
34060;SDS011;20336;-33.424;-70.638;2023-05-19T08:58:43;21.80;;;12.50;;
34060;SDS011;20336;-33.424;-70.638;2023-05-19T09:01:12;19.57;;;11.80;;
34060;SDS011;20336;-33.424;-70.638;2023-05-19T09:03:43;20.13;;;11.00;;
34060;SDS011;20336;-33.424;-70.638;2023-05-19T09:06:11;17.33;;;11.17;;
34060;SDS011;20336;-33.424;-70.638;2023-05-19T09:08:38;18.47;;;10.80;;
34060;SDS011;20336;-33.424;-70.638;2023-05-19T09:11:06;18.23;;;11.20;;
34060;SDS011;20336;-33.424;-70.638;2023-05-19T09:13:33;19.43;;;11.17;;
34060;SDS011;20336;-33.424;-70.638;2023-05-19T09:16:00;21.93;;;11.67;;
34060;SDS011;20336;-33.424;-70.638;2023-05-19T09:18:27;19.90;;;11.77;;
34060;SDS011;20336;-33.424;-70.638;2023-05-19T09:20:58;20.33;;;12.20;;
34060;SDS011;20336;-33.424;-70.638;2023-05-19T09:23:27;17.70;;;10.83;;
34060;SDS011;20336;-33.424;-70.638;2023-05-19T09:25:54;20.27;;;11.97;;
34060;SDS011;20336;-33.424;-70.638;2023-05-19T09:28:25;22.20;;;12.47;;
34060;SDS011;20336;-33.424;-70.638;2023-05-19T09:31:02;20.50;;;12.80;;
34060;SDS011;20336;-33.424;-70.638;2023-05-19T09:33:29;19.60;;;11.80;;
34060;SDS011;20336;-33.424;-70.638;2023-05-19T09:35:58;25.40;;;13.13;;
34060;SDS011;20336;-33.424;-70.638;2023-05-19T09:38:25;20.03;;;12.47;;
34060;SDS011;20336;-33.424;-70.638;2023-05-19T09:40:56;24.17;;;13.00;;
34060;SDS011;20336;-33.424;-70.638;2023-05-19T09:43:26;24.10;;;12.50;;
34060;SDS011;20336;-33.424;-70.638;2023-05-19T09:46:05;25.53;;;13.13;;
34060;SDS011;20336;-33.424;-70.638;2023-05-19T09:48:33;19.73;;;12.83;;
34060;SDS011;20336;-33.424;-70.638;2023-05-19T09:51:00;23.10;;;12.80;;
34060;SDS011;20336;-33.424;-70.638;2023-05-19T09:53:28;23.73;;;12.33;;
34060;SDS011;20336;-33.424;-70.638;2023-05-19T09:55:56;26.83;;;14.03;;
34060;SDS011;20336;-33.424;-70.638;2023-05-19T09:58:24;24.13;;;14.27;;
34060;SDS011;20336;-33.424;-70.638;2023-05-19T10:00:51;20.00;;;12.83;;
34060;SDS011;20336;-33.424;-70.638;2023-05-19T10:03:21;24.70;;;13.57;;
34060;SDS011;20336;-33.424;-70.638;2023-05-19T10:05:48;21.43;;;13.03;;
34060;SDS011;20336;-33.424;-70.638;2023-05-19T10:08:16;24.63;;;14.10;;
34060;SDS011;20336;-33.424;-70.638;2023-05-19T10:10:46;22.47;;;13.87;;
34060;SDS011;20336;-33.424;-70.638;2023-05-19T10:13:13;24.33;;;14.50;;
34060;SDS011;20336;-33.424;-70.638;2023-05-19T10:15:41;34.63;;;15.50;;
34060;SDS011;20336;-33.424;-70.638;2023-05-19T10:18:09;33.80;;;16.83;;
34060;SDS011;20336;-33.424;-70.638;2023-05-19T10:20:37;38.40;;;17.10;;
34060;SDS011;20336;-33.424;-70.638;2023-05-19T10:23:05;31.73;;;16.93;;
34060;SDS011;20336;-33.424;-70.638;2023-05-19T10:25:32;24.23;;;14.67;;
34060;SDS011;20336;-33.424;-70.638;2023-05-19T10:28:02;23.77;;;14.00;;
34060;SDS011;20336;-33.424;-70.638;2023-05-19T10:30:36;26.97;;;15.10;;
34060;SDS011;20336;-33.424;-70.638;2023-05-19T10:33:05;27.73;;;15.33;;
34060;SDS011;20336;-33.424;-70.638;2023-05-19T10:35:41;27.33;;;15.27;;
34060;SDS011;20336;-33.424;-70.638;2023-05-19T10:38:15;28.60;;;15.27;;
34060;SDS011;20336;-33.424;-70.638;2023-05-19T10:40:50;25.30;;;14.53;;
34060;SDS011;20336;-33.424;-70.638;2023-05-19T10:43:53;28.80;;;15.60;;
34060;SDS011;20336;-33.424;-70.638;2023-05-19T10:46:11;24.37;;;14.13;;
34060;SDS011;20336;-33.424;-70.638;2023-05-19T10:48:38;27.77;;;14.57;;
34060;SDS011;20336;-33.424;-70.638;2023-05-19T10:51:10;22.47;;;13.57;;
34060;SDS011;20336;-33.424;-70.638;2023-05-19T10:53:40;23.93;;;14.60;;
34060;SDS011;20336;-33.424;-70.638;2023-05-19T10:56:10;22.90;;;13.60;;
34060;SDS011;20336;-33.424;-70.638;2023-05-19T11:01:14;25.03;;;14.23;;
34060;SDS011;20336;-33.424;-70.638;2023-05-19T11:03:43;27.10;;;15.33;;
34060;SDS011;20336;-33.424;-70.638;2023-05-19T11:06:18;29.90;;;16.13;;
34060;SDS011;20336;-33.424;-70.638;2023-05-19T11:08:45;29.17;;;16.13;;
34060;SDS011;20336;-33.424;-70.638;2023-05-19T11:11:15;27.53;;;15.63;;
34060;SDS011;20336;-33.424;-70.638;2023-05-19T11:13:45;25.67;;;15.53;;
34060;SDS011;20336;-33.424;-70.638;2023-05-19T11:16:13;36.87;;;17.17;;
34060;SDS011;20336;-33.424;-70.638;2023-05-19T11:18:40;27.97;;;16.50;;
34060;SDS011;20336;-33.424;-70.638;2023-05-19T11:21:07;30.13;;;16.90;;
34060;SDS011;20336;-33.424;-70.638;2023-05-19T11:23:36;30.87;;;18.27;;
34060;SDS011;20336;-33.424;-70.638;2023-05-19T11:26:07;29.37;;;18.20;;
34060;SDS011;20336;-33.424;-70.638;2023-05-19T11:28:34;33.87;;;19.30;;
34060;SDS011;20336;-33.424;-70.638;2023-05-19T11:31:01;35.33;;;19.80;;
34060;SDS011;20336;-33.424;-70.638;2023-05-19T11:33:32;31.43;;;17.87;;
34060;SDS011;20336;-33.424;-70.638;2023-05-19T11:35:59;32.67;;;18.20;;
34060;SDS011;20336;-33.424;-70.638;2023-05-19T11:38:26;31.80;;;19.20;;
34060;SDS011;20336;-33.424;-70.638;2023-05-19T11:40:54;29.80;;;18.63;;
34060;SDS011;20336;-33.424;-70.638;2023-05-19T11:43:22;31.23;;;18.10;;
34060;SDS011;20336;-33.424;-70.638;2023-05-19T11:45:49;28.03;;;16.70;;
34060;SDS011;20336;-33.424;-70.638;2023-05-19T11:48:16;32.90;;;17.57;;
34060;SDS011;20336;-33.424;-70.638;2023-05-19T11:50:45;29.73;;;17.50;;
34060;SDS011;20336;-33.424;-70.638;2023-05-19T11:53:13;27.37;;;15.70;;
34060;SDS011;20336;-33.424;-70.638;2023-05-19T11:55:44;32.70;;;17.47;;
34060;SDS011;20336;-33.424;-70.638;2023-05-19T11:58:11;32.67;;;17.33;;
34060;SDS011;20336;-33.424;-70.638;2023-05-19T12:00:38;29.10;;;17.00;;
34060;SDS011;20336;-33.424;-70.638;2023-05-19T12:03:06;30.33;;;16.43;;
34060;SDS011;20336;-33.424;-70.638;2023-05-19T12:05:35;29.10;;;16.33;;
34060;SDS011;20336;-33.424;-70.638;2023-05-19T12:08:02;26.47;;;15.53;;
34060;SDS011;20336;-33.424;-70.638;2023-05-19T12:10:30;31.40;;;16.03;;
34060;SDS011;20336;-33.424;-70.638;2023-05-19T12:12:58;25.10;;;14.90;;
34060;SDS011;20336;-33.424;-70.638;2023-05-19T12:15:26;26.97;;;15.77;;
34060;SDS011;20336;-33.424;-70.638;2023-05-19T12:17:57;24.17;;;14.83;;
34060;SDS011;20336;-33.424;-70.638;2023-05-19T12:20:24;24.27;;;15.63;;
34060;SDS011;20336;-33.424;-70.638;2023-05-19T12:22:53;30.30;;;16.23;;
34060;SDS011;20336;-33.424;-70.638;2023-05-19T12:25:20;25.40;;;15.00;;
34060;SDS011;20336;-33.424;-70.638;2023-05-19T12:27:47;32.70;;;16.47;;
34060;SDS011;20336;-33.424;-70.638;2023-05-19T12:30:17;27.57;;;15.17;;
34060;SDS011;20336;-33.424;-70.638;2023-05-19T12:32:44;28.80;;;16.47;;
34060;SDS011;20336;-33.424;-70.638;2023-05-19T12:35:13;28.90;;;16.20;;
34060;SDS011;20336;-33.424;-70.638;2023-05-19T12:37:40;30.60;;;16.47;;
34060;SDS011;20336;-33.424;-70.638;2023-05-19T12:40:07;32.70;;;16.97;;
34060;SDS011;20336;-33.424;-70.638;2023-05-19T12:42:34;27.17;;;15.45;;
34060;SDS011;20336;-33.424;-70.638;2023-05-19T12:45:02;30.48;;;15.93;;
34060;SDS011;20336;-33.424;-70.638;2023-05-19T12:47:30;26.58;;;14.77;;
34060;SDS011;20336;-33.424;-70.638;2023-05-19T12:50:04;27.45;;;15.38;;
34060;SDS011;20336;-33.424;-70.638;2023-05-19T12:52:33;24.13;;;14.07;;
34060;SDS011;20336;-33.424;-70.638;2023-05-19T12:55:00;26.50;;;14.57;;
34060;SDS011;20336;-33.424;-70.638;2023-05-19T12:57:29;23.63;;;14.18;;
34060;SDS011;20336;-33.424;-70.638;2023-05-19T13:00:00;21.92;;;14.70;;
34060;SDS011;20336;-33.424;-70.638;2023-05-19T13:02:34;23.63;;;14.95;;
34060;SDS011;20336;-33.424;-70.638;2023-05-19T13:05:01;27.35;;;14.65;;
34060;SDS011;20336;-33.424;-70.638;2023-05-19T13:07:29;29.60;;;15.30;;
34060;SDS011;20336;-33.424;-70.638;2023-05-19T13:09:56;21.17;;;13.75;;
34060;SDS011;20336;-33.424;-70.638;2023-05-19T13:12:22;20.75;;;13.77;;
34060;SDS011;20336;-33.424;-70.638;2023-05-19T13:14:50;20.45;;;13.40;;
34060;SDS011;20336;-33.424;-70.638;2023-05-19T13:17:17;25.30;;;14.95;;
34060;SDS011;20336;-33.424;-70.638;2023-05-19T13:19:44;26.58;;;13.75;;
34060;SDS011;20336;-33.424;-70.638;2023-05-19T13:22:11;24.70;;;15.10;;
34060;SDS011;20336;-33.424;-70.638;2023-05-19T13:24:38;23.73;;;15.30;;
34060;SDS011;20336;-33.424;-70.638;2023-05-19T13:27:05;23.65;;;15.38;;
34060;SDS011;20336;-33.424;-70.638;2023-05-19T13:29:32;26.92;;;15.85;;
34060;SDS011;20336;-33.424;-70.638;2023-05-19T13:31:59;26.90;;;15.43;;
34060;SDS011;20336;-33.424;-70.638;2023-05-19T13:34:26;25.60;;;16.02;;
34060;SDS011;20336;-33.424;-70.638;2023-05-19T13:36:53;29.58;;;15.95;;
34060;SDS011;20336;-33.424;-70.638;2023-05-19T13:39:20;26.02;;;16.23;;
34060;SDS011;20336;-33.424;-70.638;2023-05-19T13:41:46;25.70;;;16.05;;
34060;SDS011;20336;-33.424;-70.638;2023-05-19T13:44:13;25.23;;;15.90;;
34060;SDS011;20336;-33.424;-70.638;2023-05-19T13:46:41;28.38;;;15.85;;
34060;SDS011;20336;-33.424;-70.638;2023-05-19T13:49:07;34.80;;;18.50;;
34060;SDS011;20336;-33.424;-70.638;2023-05-19T13:51:34;29.65;;;16.67;;
34060;SDS011;20336;-33.424;-70.638;2023-05-19T13:54:01;27.90;;;18.05;;
34060;SDS011;20336;-33.424;-70.638;2023-05-19T13:56:29;36.55;;;18.85;;
34060;SDS011;20336;-33.424;-70.638;2023-05-19T13:58:56;41.33;;;20.15;;
34060;SDS011;20336;-33.424;-70.638;2023-05-19T14:01:23;34.17;;;18.55;;
34060;SDS011;20336;-33.424;-70.638;2023-05-19T14:03:49;35.47;;;18.77;;
34060;SDS011;20336;-33.424;-70.638;2023-05-19T14:06:16;40.03;;;18.75;;
34060;SDS011;20336;-33.424;-70.638;2023-05-19T14:08:44;34.03;;;18.88;;
34060;SDS011;20336;-33.424;-70.638;2023-05-19T14:11:17;29.58;;;19.20;;
34060;SDS011;20336;-33.424;-70.638;2023-05-19T14:13:49;32.60;;;19.35;;